Time;durP1;ratioP1;P1;durP2;ratioP2;P2;SDS_P1;SDS_P2;PMS_P1;PMS_P2;Temp;Humidity;BMP_temperature;BMP_pressure;BME280_temperature;BME280_humidity;BME280_pressure;Samples;Min_cycle;Max_cycle;Signal;HPM_P1;HPM_P2
2021/06/23 00:00:34;;;;;;;4.63;3.67;;;19.30;99.90;;;;;;5007136;28;20117;-73
2021/06/23 00:03:00;;;;;;;3.65;3.22;;;19.20;99.90;;;;;;5026408;28;20097;-72
2021/06/23 00:05:26;;;;;;;3.40;2.78;;;19.20;99.90;;;;;;5019189;28;20129;-74
2021/06/23 00:07:52;;;;;;;5.95;2.22;;;19.20;99.90;;;;;;5005587;28;20588;-74
2021/06/23 00:10:19;;;;;;;2.60;1.60;;;19.20;99.90;;;;;;5023654;28;20128;-74
2021/06/23 00:12:46;;;;;;;2.30;1.20;;;19.20;99.90;;;;;;5022738;28;20094;-74
2021/06/23 00:15:17;;;;;;;1.35;1.00;;;19.20;99.90;;;;;;5026330;28;20157;-74
2021/06/23 00:17:43;;;;;;;1.08;0.98;;;19.20;99.90;;;;;;5004416;28;20074;-72
2021/06/23 00:20:09;;;;;;;0.82;0.60;;;19.10;99.90;;;;;;5019411;28;20082;-73
2021/06/23 00:22:35;;;;;;;1.02;0.70;;;19.10;99.90;;;;;;5026893;28;20512;-74
2021/06/23 00:25:01;;;;;;;0.47;0.45;;;19.20;99.90;;;;;;5025274;28;20094;-73
2021/06/23 00:27:27;;;;;;;0.50;0.35;;;19.20;99.90;;;;;;5008136;28;20082;-73
2021/06/23 00:29:52;;;;;;;1.38;0.63;;;19.20;99.90;;;;;;5023915;28;20073;-74
2021/06/23 00:32:19;;;;;;;0.80;0.50;;;19.00;99.90;;;;;;5020121;28;20118;-74
2021/06/23 00:34:45;;;;;;;0.98;0.45;;;19.00;99.90;;;;;;5004339;28;20094;-75
2021/06/23 00:37:11;;;;;;;0.98;0.68;;;19.00;99.90;;;;;;5022178;28;20132;-73
2021/06/23 00:39:37;;;;;;;1.10;0.50;;;19.00;99.90;;;;;;5025400;28;20594;-74
2021/06/23 00:42:04;;;;;;;1.23;0.98;;;18.80;99.90;;;;;;5025256;28;20096;-73
2021/06/23 00:44:30;;;;;;;0.85;0.40;;;18.70;99.90;;;;;;5028513;28;20097;-73
2021/06/23 00:46:55;;;;;;;1.75;0.70;;;18.70;99.90;;;;;;5024223;28;20453;-74
2021/06/23 00:49:22;;;;;;;0.50;0.30;;;18.70;99.90;;;;;;5010324;28;20076;-73
2021/06/23 00:51:48;;;;;;;2.47;0.70;;;18.70;99.90;;;;;;5021970;28;20164;-74
2021/06/23 00:54:15;;;;;;;1.48;0.60;;;18.60;99.90;;;;;;5023242;28;20181;-74
2021/06/23 00:56:42;;;;;;;1.63;1.10;;;18.70;99.90;;;;;;5021717;28;20078;-75
2021/06/23 00:59:09;;;;;;;2.92;0.80;;;18.70;99.90;;;;;;5024726;28;20171;-73
2021/06/23 01:01:37;;;;;;;2.25;0.80;;;18.60;99.90;;;;;;5018983;28;20213;-75
2021/06/23 01:04:03;;;;;;;0.70;0.60;;;18.70;99.90;;;;;;5017568;28;20148;-74
2021/06/23 01:06:31;;;;;;;2.35;0.70;;;18.70;99.90;;;;;;5027525;28;20526;-75
2021/06/23 01:08:56;;;;;;;1.73;0.73;;;18.70;99.90;;;;;;5025148;28;20098;-74
2021/06/23 01:11:23;;;;;;;1.17;0.82;;;18.70;99.90;;;;;;5002519;28;20097;-73
2021/06/23 01:14:04;;;;;;;2.47;1.10;;;18.70;99.90;;;;;;5008747;28;20074;-73
2021/06/23 01:16:31;;;;;;;2.28;0.82;;;18.50;99.90;;;;;;5012921;28;20161;-72
2021/06/23 01:18:59;;;;;;;1.40;1.13;;;18.50;99.90;;;;;;5008907;28;20077;-73
2021/06/23 01:21:27;;;;;;;2.03;1.27;;;18.50;99.90;;;;;;5005819;28;20074;-73
2021/06/23 01:23:52;;;;;;;2.65;1.38;;;18.50;99.90;;;;;;5008013;28;20402;-73
2021/06/23 01:26:18;;;;;;;1.98;1.30;;;18.50;99.90;;;;;;5026188;28;20097;-73
2021/06/23 01:28:43;;;;;;;2.97;1.88;;;18.50;99.90;;;;;;5012006;28;20077;-73
2021/06/23 01:31:09;;;;;;;2.85;1.60;;;18.50;99.90;;;;;;5008302;28;20524;-74
2021/06/23 01:33:35;;;;;;;2.20;1.70;;;18.60;99.90;;;;;;5006513;28;20089;-73
2021/06/23 01:36:01;;;;;;;2.83;1.95;;;18.60;99.90;;;;;;5006898;28;20097;-73
2021/06/23 01:38:27;;;;;;;3.35;1.60;;;18.60;99.90;;;;;;5008069;28;20078;-73
2021/06/23 01:40:53;;;;;;;3.63;2.00;;;18.70;99.90;;;;;;5009012;28;20217;-72
2021/06/23 01:43:19;;;;;;;1.95;1.65;;;18.60;99.90;;;;;;5007823;28;20543;-73
2021/06/23 01:45:45;;;;;;;2.20;1.65;;;18.70;99.90;;;;;;5006518;28;20101;-71
2021/06/23 01:48:14;;;;;;;2.75;1.90;;;18.70;99.90;;;;;;5007519;28;20071;-73
2021/06/23 01:50:40;;;;;;;2.15;1.77;;;18.60;99.90;;;;;;5008723;28;20124;-73
2021/06/23 01:53:06;;;;;;;3.72;2.08;;;18.50;99.90;;;;;;5008959;28;20106;-73
2021/06/23 01:55:32;;;;;;;2.63;2.28;;;18.60;99.90;;;;;;5011363;28;20128;-73
2021/06/23 01:58:07;;;;;;;2.80;2.10;;;18.50;99.90;;;;;;5016981;28;20167;-74
2021/06/23 02:00:48;;;;;;;2.58;1.95;;;18.40;99.90;;;;;;4993818;28;20085;-75
2021/06/23 02:03:21;;;;;;;3.45;2.20;;;18.40;99.90;;;;;;5010944;28;20121;-75
2021/06/23 02:06:05;;;;;;;2.88;2.45;;;18.60;99.90;;;;;;5011217;28;20159;-76
2021/06/23 02:08:37;;;;;;;2.92;2.22;;;18.60;99.90;;;;;;5012439;28;20082;-74
2021/06/23 02:11:31;;;;;;;4.00;1.88;;;18.60;99.90;;;;;;5010801;28;20082;-74
2021/06/23 02:14:06;;;;;;;3.05;2.05;;;18.60;99.90;;;;;;4993803;28;20093;-74
2021/06/23 02:16:33;;;;;;;2.10;1.80;;;18.60;99.90;;;;;;5012506;28;20580;-74
2021/06/23 02:19:02;;;;;;;2.30;2.10;;;18.60;99.90;;;;;;5029507;23;20066;-71
2021/06/23 02:21:30;;;;;;;3.50;1.80;;;18.60;99.90;;;;;;5043878;28;20168;-72
2021/06/23 02:23:56;;;;;;;3.85;1.30;;;18.60;99.90;;;;;;5052114;28;20066;-71
2021/06/23 02:26:23;;;;;;;4.35;1.83;;;18.60;99.90;;;;;;5052111;28;20084;-72
2021/06/23 02:28:49;;;;;;;3.00;1.52;;;18.60;99.90;;;;;;5050150;28;20532;-72
2021/06/23 02:31:15;;;;;;;1.30;1.20;;;18.60;99.90;;;;;;5050343;28;20156;-72
2021/06/23 02:33:41;;;;;;;1.50;1.17;;;18.50;99.90;;;;;;5051412;28;20630;-73
2021/06/23 02:36:08;;;;;;;2.10;1.90;;;18.60;99.90;;;;;;5048903;28;20164;-73
2021/06/23 02:38:34;;;;;;;2.55;1.70;;;18.60;99.90;;;;;;5052834;28;20069;-72
2021/06/23 02:40:59;;;;;;;3.55;1.40;;;18.60;99.90;;;;;;5049848;28;20103;-71
2021/06/23 02:43:25;;;;;;;3.00;1.42;;;18.60;99.90;;;;;;5051058;28;20603;-71
2021/06/23 02:45:53;;;;;;;3.63;1.60;;;18.60;99.90;;;;;;5050538;28;20786;-72
2021/06/23 02:48:20;;;;;;;3.35;1.98;;;18.60;99.90;;;;;;5049899;28;20073;-72
2021/06/23 02:50:59;;;;;;;2.42;1.80;;;18.50;99.90;;;;;;5049110;28;20148;-72
2021/06/23 02:53:29;;;;;;;2.75;1.45;;;18.50;99.90;;;;;;5051000;28;20455;-72
2021/06/23 02:55:56;;;;;;;2.70;1.70;;;18.60;99.90;;;;;;5050974;28;20069;-72
2021/06/23 02:58:22;;;;;;;3.30;1.52;;;18.60;99.90;;;;;;5049701;28;20108;-72
2021/06/23 03:00:47;;;;;;;3.67;2.00;;;18.50;99.90;;;;;;5032343;28;20117;-71
2021/06/23 03:03:13;;;;;;;4.28;2.10;;;18.60;99.90;;;;;;5049042;28;20089;-72
2021/06/23 03:05:39;;;;;;;2.85;2.63;;;18.50;99.90;;;;;;5029354;28;20082;-72
2021/06/23 03:08:06;;;;;;;2.00;1.80;;;18.50;99.90;;;;;;5048280;28;20078;-72
2021/06/23 03:10:31;;;;;;;4.60;2.03;;;18.50;99.90;;;;;;5050499;28;20147;-72
2021/06/23 03:12:57;;;;;;;2.00;1.90;;;18.50;99.90;;;;;;5049463;28;20097;-72
2021/06/23 03:15:23;;;;;;;2.35;1.90;;;18.50;99.90;;;;;;5050894;28;20062;-72
2021/06/23 03:17:48;;;;;;;3.58;1.63;;;18.50;99.90;;;;;;5049095;28;20567;-72
2021/06/23 03:20:15;;;;;;;2.75;1.80;;;18.50;99.90;;;;;;5048990;28;20106;-72
2021/06/23 03:22:40;;;;;;;4.43;1.95;;;18.50;99.90;;;;;;5049942;28;20169;-72
2021/06/23 03:25:06;;;;;;;2.08;1.77;;;18.50;99.90;;;;;;5047975;28;20156;-72
2021/06/23 03:27:32;;;;;;;3.58;1.58;;;18.50;99.90;;;;;;5050493;28;20082;-72
2021/06/23 03:29:58;;;;;;;3.88;2.67;;;18.50;99.90;;;;;;5048988;28;20097;-72
2021/06/23 03:32:24;;;;;;;2.05;1.75;;;18.40;99.90;;;;;;5048814;28;20089;-72
2021/06/23 03:34:49;;;;;;;4.07;1.83;;;18.50;99.90;;;;;;5049787;28;20070;-72
2021/06/23 03:37:15;;;;;;;2.22;1.67;;;18.50;99.90;;;;;;5048900;28;20571;-72
2021/06/23 03:39:42;;;;;;;2.05;1.80;;;18.50;99.90;;;;;;5050468;28;20622;-72
2021/06/23 03:42:08;;;;;;;4.45;1.92;;;18.50;99.90;;;;;;5051084;28;20525;-72
2021/06/23 03:44:34;;;;;;;3.15;2.00;;;18.50;99.90;;;;;;5050571;28;20077;-72
2021/06/23 03:47:02;;;;;;;2.30;2.10;;;18.50;99.90;;;;;;5050357;28;20093;-72
2021/06/23 03:49:28;;;;;;;2.28;1.80;;;18.40;99.90;;;;;;5046303;28;20139;-72
2021/06/23 03:51:54;;;;;;;2.65;1.75;;;18.50;99.90;;;;;;5045777;28;20093;-72
2021/06/23 03:54:20;;;;;;;3.55;2.10;;;18.50;99.90;;;;;;5051213;28;20092;-72
2021/06/23 03:56:45;;;;;;;2.20;2.00;;;18.40;99.90;;;;;;5050418;28;20077;-72
2021/06/23 03:59:11;;;;;;;3.20;1.80;;;18.30;99.90;;;;;;5048095;28;20090;-72
2021/06/23 04:01:37;;;;;;;4.00;1.73;;;18.40;99.90;;;;;;5024593;28;20076;-72
2021/06/23 04:04:02;;;;;;;3.13;2.03;;;18.50;99.90;;;;;;5047146;28;20103;-72
2021/06/23 04:06:29;;;;;;;1.88;1.73;;;18.40;99.90;;;;;;5047514;28;20117;-72
2021/06/23 04:08:55;;;;;;;1.70;1.50;;;18.40;99.90;;;;;;5047949;28;20080;-72
2021/06/23 04:11:20;;;;;;;3.25;2.25;;;18.50;99.90;;;;;;5031937;28;20077;-72
2021/06/23 04:13:46;;;;;;;2.15;1.52;;;18.40;99.90;;;;;;5050641;28;20078;-72
2021/06/23 04:16:12;;;;;;;2.53;1.88;;;18.50;99.90;;;;;;5027374;28;20165;-73
2021/06/23 04:18:38;;;;;;;2.58;2.25;;;18.50;99.90;;;;;;5036535;28;20164;-72
2021/06/23 04:21:04;;;;;;;3.25;1.95;;;18.40;99.90;;;;;;5041122;28;20631;-72
2021/06/23 04:23:30;;;;;;;2.97;2.13;;;18.40;99.90;;;;;;5031215;28;20092;-72
2021/06/23 04:25:55;;;;;;;4.88;2.63;;;18.40;99.90;;;;;;5030124;28;20081;-71
2021/06/23 04:28:21;;;;;;;2.80;2.05;;;18.40;99.90;;;;;;5016326;28;20100;-72
2021/06/23 04:30:46;;;;;;;4.43;2.40;;;18.40;99.90;;;;;;5046630;28;20630;-72
2021/06/23 04:33:12;;;;;;;2.70;2.35;;;18.50;99.90;;;;;;5044371;28;20139;-72
2021/06/23 04:35:38;;;;;;;2.38;2.17;;;18.50;99.90;;;;;;5044073;28;20494;-72
2021/06/23 04:38:03;;;;;;;2.88;2.67;;;18.50;99.90;;;;;;5049039;28;20085;-72
2021/06/23 04:40:29;;;;;;;5.00;2.83;;;18.60;99.90;;;;;;5047238;28;20172;-71
2021/06/23 04:42:55;;;;;;;3.47;2.83;;;18.60;99.90;;;;;;5045672;28;20148;-72
2021/06/23 04:45:20;;;;;;;3.50;3.08;;;18.60;99.90;;;;;;5049197;28;20176;-71
2021/06/23 04:47:46;;;;;;;4.18;3.78;;;18.60;99.90;;;;;;5048564;28;20084;-72
2021/06/23 04:50:12;;;;;;;3.30;2.90;;;18.70;99.90;;;;;;5045970;28;20097;-72
2021/06/23 04:52:38;;;;;;;3.30;2.90;;;18.60;99.90;;;;;;5045909;28;20154;-71
2021/06/23 04:55:06;;;;;;;5.03;2.70;;;18.70;99.90;;;;;;5045766;28;20112;-72
2021/06/23 04:57:31;;;;;;;3.90;3.50;;;18.70;99.90;;;;;;5047691;28;20070;-72
2021/06/23 04:59:57;;;;;;;4.25;3.85;;;18.70;99.90;;;;;;5047430;28;20565;-71
2021/06/23 05:02:23;;;;;;;5.80;4.78;;;18.80;99.90;;;;;;5047333;28;20081;-71
2021/06/23 05:04:49;;;;;;;7.20;4.78;;;18.80;99.90;;;;;;5037914;28;20135;-73
2021/06/23 05:07:14;;;;;;;4.57;4.18;;;18.80;99.90;;;;;;5026979;28;20164;-71
2021/06/23 05:09:40;;;;;;;4.85;4.13;;;18.80;99.90;;;;;;5030693;28;20121;-72
2021/06/23 05:12:07;;;;;;;5.85;4.40;;;18.80;99.90;;;;;;5030849;28;20106;-74
2021/06/23 05:14:33;;;;;;;5.53;4.10;;;18.80;99.90;;;;;;5043336;28;20069;-73
2021/06/23 05:16:59;;;;;;;6.63;4.30;;;18.90;99.90;;;;;;5039093;28;20438;-71
2021/06/23 05:19:24;;;;;;;4.97;4.47;;;18.80;99.90;;;;;;5044170;28;20097;-73
2021/06/23 05:21:50;;;;;;;6.72;5.10;;;18.80;99.90;;;;;;5047892;28;20077;-72
2021/06/23 05:24:17;;;;;;;5.80;5.18;;;18.80;99.90;;;;;;5043701;28;20069;-71
2021/06/23 05:26:42;;;;;;;6.38;5.80;;;18.70;99.90;;;;;;5039688;28;20077;-72
2021/06/23 05:29:08;;;;;;;5.93;5.32;;;18.70;99.90;;;;;;5036697;28;20608;-71
2021/06/23 05:31:34;;;;;;;5.82;5.28;;;18.70;99.90;;;;;;5025017;28;20086;-72
2021/06/23 05:34:00;;;;;;;5.82;5.32;;;18.80;99.90;;;;;;5026153;28;20076;-71
2021/06/23 05:36:26;;;;;;;7.03;5.70;;;18.80;99.90;;;;;;5040489;28;20152;-72
2021/06/23 05:38:53;;;;;;;5.80;5.20;;;18.90;99.90;;;;;;5042396;28;20184;-72
2021/06/23 05:41:19;;;;;;;8.15;5.45;;;18.90;99.90;;;;;;5046588;28;20085;-72
2021/06/23 05:43:45;;;;;;;6.53;5.85;;;18.90;99.90;;;;;;5044640;28;20085;-71
2021/06/23 05:46:10;;;;;;;5.55;5.05;;;18.80;99.90;;;;;;5032053;28;20085;-72
2021/06/23 05:48:36;;;;;;;6.35;5.75;;;18.90;99.90;;;;;;5037754;28;20089;-71
2021/06/23 05:51:02;;;;;;;6.13;5.45;;;18.90;99.90;;;;;;5044827;28;20132;-72
2021/06/23 05:53:28;;;;;;;6.82;5.28;;;18.90;99.90;;;;;;5010157;28;20097;-72
2021/06/23 05:55:55;;;;;;;6.75;6.15;;;19.00;99.90;;;;;;5044784;28;20143;-71
2021/06/23 05:58:24;;;;;;;5.82;5.25;;;19.00;99.90;;;;;;5044881;28;20161;-72
2021/06/23 06:00:50;;;;;;;6.57;5.07;;;19.00;99.90;;;;;;5046171;28;20164;-71
2021/06/23 06:03:16;;;;;;;5.68;5.18;;;19.00;99.90;;;;;;5025933;28;20173;-71
2021/06/23 06:05:41;;;;;;;5.97;5.38;;;19.10;99.90;;;;;;5041402;28;20184;-72
2021/06/23 06:08:07;;;;;;;6.30;5.70;;;19.00;99.90;;;;;;5045643;28;20089;-72
2021/06/23 06:10:33;;;;;;;5.95;5.25;;;19.00;99.90;;;;;;5040799;28;20093;-71
2021/06/23 06:13:03;;;;;;;5.70;5.20;;;19.10;99.90;;;;;;5045956;28;20104;-72
2021/06/23 06:15:28;;;;;;;6.78;5.63;;;19.10;99.90;;;;;;5046672;28;20464;-72
2021/06/23 06:18:03;;;;;;;7.18;6.47;;;19.10;99.90;;;;;;5046567;28;20074;-72
2021/06/23 06:20:28;;;;;;;;;;;19.10;99.90;;;;;;5046785;28;20110;-72
2021/06/23 06:22:54;;;;;;;8.10;5.22;;;19.10;99.90;;;;;;5047544;28;19968;-72
2021/06/23 06:25:20;;;;;;;6.75;6.13;;;19.20;99.90;;;;;;5036218;28;20077;-72
2021/06/23 06:27:45;;;;;;;8.57;5.95;;;19.20;99.90;;;;;;5044556;28;20089;-72
2021/06/23 06:30:11;;;;;;;7.25;6.55;;;19.20;99.90;;;;;;5046881;28;20600;-71
2021/06/23 06:32:37;;;;;;;6.75;6.07;;;19.30;99.90;;;;;;5018312;28;20125;-71
2021/06/23 06:35:04;;;;;;;7.07;6.32;;;19.30;99.90;;;;;;5040078;28;20073;-71
2021/06/23 06:37:29;;;;;;;7.82;7.15;;;19.30;99.90;;;;;;5045881;28;20073;-71
2021/06/23 06:39:55;;;;;;;7.88;7.18;;;19.30;99.90;;;;;;5043392;28;20456;-71
2021/06/23 06:42:21;;;;;;;7.57;6.63;;;19.30;99.90;;;;;;5044366;28;20146;-71
2021/06/23 06:44:46;;;;;;;7.47;6.78;;;19.40;99.90;;;;;;5038098;28;20097;-71
2021/06/23 06:47:12;;;;;;;7.75;7.00;;;19.40;99.90;;;;;;5038772;28;20077;-71
2021/06/23 06:49:38;;;;;;;8.70;7.10;;;19.40;99.90;;;;;;5045213;28;20093;-71
2021/06/23 06:52:04;;;;;;;11.05;6.38;;;19.40;99.90;;;;;;5051415;28;20139;-71
2021/06/23 06:54:30;;;;;;;8.23;6.40;;;19.50;99.90;;;;;;5046002;28;20123;-71
2021/06/23 06:56:56;;;;;;;7.50;6.80;;;19.50;99.90;;;;;;5048435;28;20144;-71
2021/06/23 06:59:21;;;;;;;7.88;7.07;;;19.50;99.90;;;;;;5046457;28;20096;-71
2021/06/23 07:01:48;;;;;;;7.47;6.65;;;19.40;99.90;;;;;;5015313;28;20109;-72
2021/06/23 07:04:15;;;;;;;7.50;6.80;;;19.50;99.90;;;;;;5044533;28;20090;-71
2021/06/23 07:06:46;;;;;;;8.05;7.22;;;19.50;99.90;;;;;;5046039;28;20474;-71
2021/06/23 07:09:12;;;;;;;7.18;6.53;;;19.60;99.90;;;;;;5050374;28;20810;-70
2021/06/23 07:11:38;;;;;;;8.43;6.72;;;19.70;99.90;;;;;;5043111;28;20082;-71
2021/06/23 07:14:04;;;;;;;7.57;6.88;;;19.90;99.90;;;;;;5040561;28;20065;-71
2021/06/23 07:16:30;;;;;;;8.27;7.13;;;20.00;99.90;;;;;;5010005;28;20074;-70
2021/06/23 07:18:55;;;;;;;8.15;7.35;;;20.10;99.90;;;;;;5044090;28;20074;-71
2021/06/23 07:21:21;;;;;;;7.55;6.85;;;20.20;99.90;;;;;;5048233;28;20084;-71
2021/06/23 07:23:48;;;;;;;8.70;7.90;;;20.10;99.90;;;;;;5048843;28;20160;-70
2021/06/23 07:26:15;;;;;;;7.78;6.63;;;20.30;99.90;;;;;;5038139;28;20081;-71
2021/06/23 07:28:48;;;;;;;8.35;7.57;;;20.30;99.90;;;;;;5048786;28;20147;-72
2021/06/23 07:31:18;;;;;;;8.63;7.45;;;20.30;99.90;;;;;;5042945;28;20085;-72
2021/06/23 07:33:50;;;;;;;8.05;7.07;;;20.30;99.90;;;;;;5047919;28;20093;-72
2021/06/23 07:39:19;;;;;;;8.13;7.35;;;20.30;99.90;;;;;;4976355;28;20193;-72
2021/06/23 07:41:49;;;;;;;8.55;7.75;;;20.30;99.90;;;;;;5035641;28;20175;-72
2021/06/23 07:44:19;;;;;;;8.50;7.60;;;20.20;99.90;;;;;;5011382;28;20096;-70
2021/06/23 07:46:49;;;;;;;9.30;7.47;;;20.30;99.90;;;;;;5043086;28;20076;-72
2021/06/23 07:49:16;;;;;;;8.57;7.05;;;20.70;99.90;;;;;;5044461;28;20090;-71
2021/06/23 07:52:51;;;;;;;9.93;8.43;;;20.90;99.90;;;;;;5042221;28;20457;-71
2021/06/23 08:08:32;;;;;;;8.68;7.78;;;20.60;99.90;;;;;;4950317;28;20092;-72
2021/06/23 08:11:11;;;;;;;8.43;7.35;;;20.90;99.90;;;;;;5042459;28;20239;-71
2021/06/23 08:13:36;;;;;;;7.75;6.90;;;21.10;99.90;;;;;;5044669;28;20101;-74
2021/06/23 08:16:03;;;;;;;10.35;7.55;;;21.10;99.90;;;;;;5002314;28;20097;-72
2021/06/23 08:18:29;;;;;;;7.72;6.93;;;21.10;99.90;;;;;;5026208;28;20078;-71
2021/06/23 08:20:54;;;;;;;8.15;6.78;;;21.10;99.90;;;;;;5025114;28;20133;-72
2021/06/23 08:23:20;;;;;;;7.38;6.78;;;21.20;99.90;;;;;;5029343;28;20070;-71
2021/06/23 08:25:45;;;;;;;7.38;6.68;;;21.30;99.90;;;;;;5016056;28;20818;-72
2021/06/23 08:28:11;;;;;;;6.78;6.18;;;21.30;99.90;;;;;;5010555;28;20070;-71
2021/06/23 08:30:36;;;;;;;5.63;5.13;;;21.40;99.90;;;;;;5019765;28;20949;-71
2021/06/23 08:33:03;;;;;;;7.35;5.82;;;21.60;99.90;;;;;;5028341;28;20085;-71
2021/06/23 08:35:29;;;;;;;5.13;4.63;;;21.60;99.90;;;;;;5014084;28;20181;-71
2021/06/23 08:37:55;;;;;;;5.70;5.20;;;21.70;99.90;;;;;;5026887;28;20133;-71
2021/06/23 08:40:21;;;;;;;5.57;4.95;;;21.80;99.90;;;;;;5009468;28;20098;-71
2021/06/23 08:42:47;;;;;;;5.45;4.93;;;21.80;99.90;;;;;;5025589;28;20085;-72
2021/06/23 08:45:14;;;;;;;6.18;5.15;;;21.80;99.90;;;;;;5018780;28;20074;-70
2021/06/23 08:47:43;;;;;;;6.05;5.50;;;21.60;99.90;;;;;;5021542;28;20466;-71
2021/06/23 08:50:14;;;;;;;7.13;5.28;;;21.40;99.90;;;;;;5027874;28;20097;-70
2021/06/23 08:52:40;;;;;;;7.93;5.40;;;21.40;99.90;;;;;;5027371;28;20089;-70
2021/06/23 08:55:06;;;;;;;5.13;4.63;;;21.40;99.90;;;;;;5021578;28;20075;-70
2021/06/23 08:57:35;;;;;;;5.55;4.80;;;21.40;99.90;;;;;;5009211;28;20078;-71
2021/06/23 09:00:07;;;;;;;5.53;5.03;;;21.50;99.90;;;;;;5019740;28;20562;-71
2021/06/23 09:02:34;;;;;;;4.28;3.90;;;21.90;99.90;;;;;;5008879;28;20124;-71
2021/06/23 09:05:08;;;;;;;5.60;4.22;;;22.20;99.90;;;;;;5018983;28;20088;-72
2021/06/23 09:07:49;;;;;;;4.75;3.90;;;22.40;99.90;;;;;;5008172;28;20100;-71
2021/06/23 09:10:21;;;;;;;4.78;4.38;;;22.40;99.90;;;;;;5026366;28;20109;-71
2021/06/23 09:13:06;;;;;;;5.50;5.00;;;22.60;99.90;;;;;;5021907;28;20094;-72
2021/06/23 09:15:48;;;;;;;4.72;4.32;;;22.40;99.90;;;;;;5023223;28;20073;-71
2021/06/23 09:18:35;;;;;;;3.97;3.60;;;22.60;99.90;;;;;;5014368;28;20074;-71
2021/06/23 09:21:19;;;;;;;5.20;4.55;;;22.70;99.90;;;;;;5022760;28;20453;-71
2021/06/23 09:23:54;;;;;;;5.53;4.40;;;22.60;99.90;;;;;;5025370;28;20074;-71
2021/06/23 09:26:34;;;;;;;4.63;4.05;;;22.50;99.90;;;;;;5019978;28;20084;-71
2021/06/23 09:29:04;;;;;;;4.45;4.05;;;22.50;99.90;;;;;;5023235;28;20258;-71
2021/06/23 09:31:52;;;;;;;6.30;3.95;;;22.20;99.90;;;;;;5024962;28;20239;-71
2021/06/23 09:34:43;;;;;;;5.45;4.20;;;22.30;99.90;;;;;;5020205;28;20160;-72
2021/06/23 09:37:30;;;;;;;5.35;3.88;;;22.50;99.90;;;;;;5017320;28;20083;-71
2021/06/23 09:40:15;;;;;;;4.95;3.90;;;22.70;99.90;;;;;;5016956;28;20098;-71
2021/06/23 09:42:43;;;;;;;4.15;3.65;;;22.70;99.90;;;;;;5023374;28;20175;-71
2021/06/23 09:45:11;;;;;;;3.85;3.45;;;22.70;99.90;;;;;;5020258;28;20097;-72
2021/06/23 09:47:38;;;;;;;4.55;4.15;;;22.50;99.90;;;;;;5009492;28;20553;-72
2021/06/23 09:50:18;;;;;;;4.00;3.60;;;22.60;99.90;;;;;;5018688;28;20172;-74
2021/06/23 09:52:58;;;;;;;5.38;3.90;;;22.60;99.90;;;;;;5026344;28;20085;-72
2021/06/23 09:55:38;;;;;;;4.53;4.13;;;22.40;99.90;;;;;;5019624;28;20565;-71
2021/06/23 09:58:07;;;;;;;4.63;4.00;;;22.30;99.90;;;;;;5026448;28;20084;-72
2021/06/23 10:00:34;;;;;;;5.00;4.50;;;22.20;99.90;;;;;;5025692;28;20156;-72
2021/06/23 10:03:06;;;;;;;5.88;4.00;;;22.30;99.90;;;;;;5026499;28;20861;-72
2021/06/23 10:05:32;;;;;;;5.03;4.45;;;22.30;99.90;;;;;;5027900;28;20082;-72
2021/06/23 10:07:57;;;;;;;4.60;4.20;;;22.20;99.90;;;;;;5025235;28;20081;-71
2021/06/23 10:10:41;;;;;;;4.00;3.60;;;22.20;99.90;;;;;;5026651;28;20098;-72
2021/06/23 10:13:07;;;;;;;6.05;5.35;;;22.30;99.90;;;;;;5020955;28;20090;-72
2021/06/23 10:15:33;;;;;;;5.43;4.90;;;22.50;99.90;;;;;;5027207;28;20461;-72
2021/06/23 10:18:01;;;;;;;6.70;5.10;;;22.40;99.90;;;;;;5026258;28;20148;-72
2021/06/23 10:20:27;;;;;;;6.15;5.20;;;22.40;99.90;;;;;;5008623;28;20108;-72
2021/06/23 10:22:53;;;;;;;5.20;4.78;;;22.40;99.90;;;;;;5024900;28;20081;-72
2021/06/23 10:25:19;;;;;;;5.15;4.30;;;22.20;99.90;;;;;;5010863;28;20093;-72
2021/06/23 10:27:49;;;;;;;5.30;4.68;;;22.10;99.90;;;;;;5028556;28;20074;-72
2021/06/23 10:30:16;;;;;;;4.45;3.95;;;22.20;99.90;;;;;;5033697;22;20105;-72
2021/06/23 10:32:43;;;;;;;5.65;4.22;;;22.40;99.90;;;;;;5025626;28;20097;-74
2021/06/23 10:35:09;;;;;;;5.10;4.60;;;22.40;99.90;;;;;;5027759;28;20082;-72
2021/06/23 10:37:38;;;;;;;4.10;3.70;;;22.30;99.90;;;;;;5023064;28;20070;-72
2021/06/23 10:40:07;;;;;;;4.50;3.78;;;22.40;99.90;;;;;;5009891;28;20537;-74
2021/06/23 10:42:33;;;;;;;5.72;3.88;;;22.50;99.90;;;;;;5027348;28;20080;-72
2021/06/23 10:44:58;;;;;;;4.78;3.85;;;22.40;99.90;;;;;;5019412;28;20074;-75
2021/06/23 10:47:38;;;;;;;4.93;4.53;;;22.40;99.90;;;;;;5028115;28;20093;-74
2021/06/23 10:50:31;;;;;;;5.00;4.50;;;22.50;99.90;;;;;;5031616;28;20522;-72
2021/06/23 10:52:57;;;;;;;6.55;4.95;;;22.40;99.90;;;;;;5005396;28;20149;-72
2021/06/23 10:55:23;;;;;;;5.60;4.63;;;22.30;99.90;;;;;;5023883;28;20074;-75
2021/06/23 10:57:54;;;;;;;5.13;4.63;;;22.30;99.90;;;;;;5027667;28;20102;-74
2021/06/23 11:00:21;;;;;;;4.30;3.90;;;22.30;99.90;;;;;;5004574;28;20091;-72
2021/06/23 11:02:49;;;;;;;5.07;3.92;;;22.30;99.90;;;;;;5024900;28;20165;-74
2021/06/23 11:05:22;;;;;;;7.72;4.72;;;22.50;99.90;;;;;;5027793;28;20108;-75
2021/06/23 11:07:58;;;;;;;4.45;4.03;;;22.60;99.90;;;;;;5028100;28;20070;-74
2021/06/23 11:10:34;;;;;;;8.35;4.20;;;22.60;99.90;;;;;;5024045;28;20094;-71
2021/06/23 11:13:04;;;;;;;4.97;3.42;;;22.60;99.90;;;;;;5025563;28;20087;-72
2021/06/23 11:15:34;;;;;;;4.15;2.50;;;22.80;99.90;;;;;;5026453;28;20149;-72
2021/06/23 11:18:31;;;;;;;5.18;3.92;;;22.80;99.90;;;;;;5009801;28;20106;-72
2021/06/23 11:21:14;;;;;;;5.28;4.72;;;22.90;99.90;;;;;;5027904;28;20101;-71
2021/06/23 11:23:52;;;;;;;7.30;4.80;;;23.00;99.90;;;;;;5028096;28;20105;-74
2021/06/23 11:26:21;;;;;;;4.75;4.25;;;23.30;99.90;;;;;;5024700;28;20124;-72
2021/06/23 11:29:06;;;;;;;5.20;3.88;;;23.40;99.90;;;;;;5028286;28;20160;-74
2021/06/23 11:31:43;;;;;;;5.13;4.28;;;23.40;99.90;;;;;;5022845;28;20085;-73
2021/06/23 11:34:10;;;;;;;3.30;3.00;;;23.40;99.90;;;;;;5028670;28;20573;-73
2021/06/23 11:36:36;;;;;;;7.65;3.83;;;23.30;99.90;;;;;;5032500;28;20526;-74
2021/06/23 11:39:04;;;;;;;6.55;4.18;;;23.40;99.90;;;;;;5029070;28;20084;-72
2021/06/23 11:41:30;;;;;;;6.22;4.13;;;23.20;99.90;;;;;;5029622;28;20534;-74
2021/06/23 11:43:55;;;;;;;5.13;4.45;;;23.30;99.90;;;;;;5026130;28;20089;-73
2021/06/23 11:46:21;;;;;;;4.95;4.45;;;23.50;99.90;;;;;;5027360;28;20553;-74
2021/06/23 11:48:47;;;;;;;4.40;4.00;;;23.50;99.90;;;;;;5027415;28;20082;-72
2021/06/23 11:51:13;;;;;;;6.30;3.88;;;23.30;99.90;;;;;;5024161;28;20231;-73
2021/06/23 11:53:40;;;;;;;4.50;4.10;;;23.40;99.90;;;;;;5023524;28;20094;-73
2021/06/23 11:56:07;;;;;;;5.57;4.95;;;23.20;99.90;;;;;;5007358;28;20129;-73
2021/06/23 11:58:33;;;;;;;5.28;3.90;;;23.10;99.90;;;;;;5025897;28;20140;-74
2021/06/23 12:00:59;;;;;;;4.75;4.35;;;23.10;99.90;;;;;;5024312;28;20584;-73
2021/06/23 12:03:24;;;;;;;5.50;4.43;;;23.10;99.90;;;;;;5023332;28;20078;-73
2021/06/23 12:05:50;;;;;;;4.78;4.38;;;23.10;99.90;;;;;;5020766;28;20129;-74
2021/06/23 12:08:16;;;;;;;5.05;4.60;;;23.20;99.90;;;;;;5029540;28;20070;-74
2021/06/23 12:10:43;;;;;;;5.80;4.38;;;23.30;99.90;;;;;;5010088;28;20188;-74
2021/06/23 12:13:10;;;;;;;7.30;4.50;;;23.30;99.90;;;;;;5027651;28;20105;-74
2021/06/23 12:15:37;;;;;;;4.13;3.72;;;23.20;99.90;;;;;;5027181;28;20078;-73
2021/06/23 12:18:08;;;;;;;4.72;3.30;;;23.20;99.90;;;;;;5024431;28;20096;-74
2021/06/23 12:20:36;;;;;;;4.30;3.78;;;23.40;99.90;;;;;;5025414;28;20094;-74
2021/06/23 12:23:04;;;;;;;7.40;3.83;;;23.40;99.90;;;;;;5027791;28;20082;-74
2021/06/23 12:25:34;;;;;;;3.72;3.42;;;23.50;99.90;;;;;;5025468;28;20088;-74
2021/06/23 12:28:02;;;;;;;4.18;3.78;;;23.40;99.90;;;;;;5022786;28;20101;-74
2021/06/23 12:30:28;;;;;;;3.92;3.45;;;23.50;99.90;;;;;;4999232;28;20207;-75
2021/06/23 12:32:59;;;;;;;8.82;4.28;;;23.80;99.90;;;;;;5027020;28;20089;-74
2021/06/23 12:35:25;;;;;;;6.68;3.67;;;23.90;99.90;;;;;;5023950;28;20082;-74
2021/06/23 12:37:51;;;;;;;5.07;3.60;;;23.90;99.90;;;;;;5028555;28;20078;-74
2021/06/23 12:40:17;;;;;;;4.25;3.85;;;23.80;99.90;;;;;;5009061;28;20337;-74
2021/06/23 12:42:43;;;;;;;5.40;3.70;;;23.70;99.90;;;;;;5026377;28;20677;-74
2021/06/23 12:45:09;;;;;;;4.05;3.65;;;23.70;99.90;;;;;;5026713;28;20164;-75
2021/06/23 12:47:35;;;;;;;6.10;3.67;;;23.60;99.90;;;;;;5022773;28;20109;-74
2021/06/23 12:50:02;;;;;;;4.57;3.40;;;23.50;99.90;;;;;;5025547;28;20297;-75
2021/06/23 12:52:27;;;;;;;4.85;3.67;;;23.60;99.90;;;;;;5027659;28;20090;-74
2021/06/23 12:54:53;;;;;;;6.13;3.42;;;23.50;99.90;;;;;;5016194;28;20073;-75
2021/06/23 12:57:19;;;;;;;5.85;3.40;;;23.60;99.90;;;;;;5024542;28;20082;-73
2021/06/23 12:59:44;;;;;;;3.95;3.65;;;23.50;99.90;;;;;;5024325;28;20108;-73
2021/06/23 13:02:10;;;;;;;4.13;3.63;;;23.60;99.90;;;;;;5021434;28;20081;-74
2021/06/23 13:04:35;;;;;;;5.68;3.28;;;23.70;99.90;;;;;;5027486;28;20089;-73
2021/06/23 13:07:01;;;;;;;5.65;3.90;;;23.80;99.90;;;;;;5023679;28;20096;-74
2021/06/23 13:09:26;;;;;;;3.88;3.58;;;23.90;99.90;;;;;;5025638;28;20097;-74